createdAt,value
2018-09-14T00:00:47.688Z,98.20
2018-09-14T00:03:21.957Z,98.20
2018-09-14T00:05:56.203Z,98.30
2018-09-14T00:08:30.521Z,98.90
2018-09-14T00:11:04.874Z,99.30
2018-09-14T00:13:39.239Z,99.90
2018-09-14T00:16:13.586Z,99.90
2018-09-14T00:18:47.926Z,99.90
2018-09-14T00:21:22.199Z,99.90
2018-09-14T00:23:56.470Z,99.90
2018-09-14T00:26:30.634Z,99.90
2018-09-14T00:29:04.851Z,99.90
2018-09-14T00:31:39.133Z,99.90
2018-09-14T00:34:13.326Z,99.90
2018-09-14T00:36:47.760Z,99.90
2018-09-14T00:39:22.098Z,99.90
2018-09-14T00:41:56.455Z,99.90
2018-09-14T00:44:30.747Z,99.90
2018-09-14T00:47:05.364Z,99.90
2018-09-14T00:49:39.682Z,99.90
2018-09-14T00:52:14.105Z,99.90
2018-09-14T00:54:48.287Z,99.90
2018-09-14T00:57:22.666Z,99.90
2018-09-14T00:59:56.942Z,99.90
2018-09-14T01:02:31.222Z,99.90
2018-09-14T01:05:05.490Z,99.90
2018-09-14T01:07:39.828Z,99.90
2018-09-14T01:10:14.159Z,99.90
2018-09-14T01:12:48.482Z,99.90
2018-09-14T01:15:22.822Z,99.90
2018-09-14T01:17:57.119Z,99.90
2018-09-14T01:20:31.430Z,99.90
2018-09-14T01:23:05.721Z,99.90
2018-09-14T01:25:39.955Z,99.90
2018-09-14T01:28:14.263Z,99.90
2018-09-14T01:30:48.506Z,99.90
2018-09-14T01:33:22.715Z,99.90
2018-09-14T01:36:02.561Z,99.90
2018-09-14T01:38:36.766Z,99.90
2018-09-14T01:41:11.034Z,99.90
2018-09-14T01:43:45.377Z,99.90
2018-09-14T01:46:19.574Z,99.90
2018-09-14T01:48:53.956Z,99.90
2018-09-14T01:51:28.290Z,99.90
2018-09-14T01:54:02.670Z,99.90
2018-09-14T01:56:36.940Z,99.90
2018-09-14T01:59:11.256Z,99.90
2018-09-14T02:01:45.613Z,99.90
2018-09-14T02:04:19.908Z,99.90
2018-09-14T02:06:54.133Z,99.90
2018-09-14T02:09:28.523Z,99.90
2018-09-14T02:12:02.859Z,99.90
2018-09-14T02:14:37.291Z,99.90
2018-09-14T02:17:11.730Z,99.90
2018-09-14T02:19:45.958Z,99.90
2018-09-14T02:22:20.157Z,99.90
2018-09-14T02:24:54.389Z,99.90
2018-09-14T02:27:28.799Z,99.90
2018-09-14T02:30:03.039Z,99.90
2018-09-14T02:32:37.662Z,99.90
2018-09-14T02:35:11.864Z,99.90
2018-09-14T02:59:02.522Z,99.90
2018-09-14T03:01:36.806Z,99.90
2018-09-14T03:04:11.133Z,99.90
2018-09-14T03:06:45.463Z,99.90
2018-09-14T03:09:19.802Z,99.90
2018-09-14T03:11:54.181Z,99.90
2018-09-14T03:14:28.378Z,99.90
2018-09-14T03:17:02.679Z,99.90
2018-09-14T03:19:36.976Z,99.90
2018-09-14T03:22:11.334Z,99.90
2018-09-14T03:24:45.546Z,99.90
2018-09-14T03:27:19.774Z,99.90
2018-09-14T03:29:54.022Z,99.90
2018-09-14T03:32:28.327Z,99.90
2018-09-14T03:35:02.530Z,99.90
2018-09-14T03:37:36.819Z,99.90
2018-09-14T03:40:11.241Z,99.90
2018-09-14T03:42:45.519Z,99.90
2018-09-14T03:45:19.846Z,99.90
2018-09-14T03:47:54.093Z,99.90
2018-09-14T03:50:28.258Z,99.90
2018-09-14T03:53:02.628Z,99.90
2018-09-14T03:55:36.925Z,99.90
2018-09-14T03:58:11.275Z,99.90
2018-09-14T04:00:45.619Z,99.90
2018-09-14T04:03:20.023Z,99.90
2018-09-14T04:05:54.345Z,99.90
2018-09-14T04:08:28.682Z,99.90
2018-09-14T04:11:03.173Z,99.90
2018-09-14T04:13:37.531Z,99.90
2018-09-14T04:16:12.029Z,99.90
2018-09-14T04:18:54.125Z,99.90
2018-09-14T04:21:28.686Z,99.90
2018-09-14T04:24:03.214Z,99.90
2018-09-14T04:26:37.526Z,99.90
2018-09-14T04:29:11.805Z,99.90
2018-09-14T04:31:46.179Z,99.90
2018-09-14T04:34:20.530Z,99.90
2018-09-14T04:36:54.735Z,99.90
2018-09-14T04:39:28.982Z,99.90
2018-09-14T04:42:03.308Z,99.90
2018-09-14T04:44:37.665Z,99.90
2018-09-14T04:47:11.943Z,99.90
2018-09-14T04:49:46.238Z,99.90
2018-09-14T04:52:20.659Z,99.90
2018-09-14T04:54:55.093Z,99.90
2018-09-14T04:57:29.513Z,99.90
2018-09-14T05:00:03.941Z,99.90
2018-09-14T05:02:38.354Z,99.90
2018-09-14T05:05:12.653Z,99.90
2018-09-14T05:07:46.901Z,99.90
2018-09-14T05:10:21.178Z,99.90
2018-09-14T05:12:55.447Z,99.90
2018-09-14T05:15:29.977Z,99.90
2018-09-14T05:18:05.218Z,99.90
2018-09-14T05:20:39.398Z,99.90
2018-09-14T05:23:13.566Z,99.90
2018-09-14T05:25:47.850Z,99.90
2018-09-14T05:28:22.079Z,99.90
2018-09-14T05:30:56.298Z,99.90
2018-09-14T05:33:30.634Z,99.90
2018-09-14T05:36:05.073Z,99.90
2018-09-14T05:38:39.269Z,99.90
2018-09-14T05:41:13.590Z,99.90
2018-09-14T05:43:47.749Z,99.90
2018-09-14T05:46:22.253Z,99.90
2018-09-14T05:48:56.652Z,99.90
2018-09-14T05:51:30.895Z,99.90
2018-09-14T05:54:05.339Z,99.90
2018-09-14T05:56:39.642Z,99.90
2018-09-14T05:59:14.012Z,99.90
2018-09-14T06:01:48.282Z,99.90
2018-09-14T06:04:22.591Z,99.90
2018-09-14T06:06:56.840Z,99.90
2018-09-14T06:09:31.001Z,99.90
2018-09-14T06:12:05.451Z,99.90
2018-09-14T06:14:39.607Z,99.90
2018-09-14T06:17:13.930Z,99.90
2018-09-14T06:19:48.254Z,99.90
2018-09-14T06:22:22.713Z,99.90
2018-09-14T06:24:56.983Z,99.90
2018-09-14T06:27:31.478Z,99.90
2018-09-14T06:30:05.838Z,99.90
2018-09-14T06:32:40.129Z,99.90
2018-09-14T06:35:14.450Z,99.90
2018-09-14T06:37:48.950Z,99.90
2018-09-14T06:40:23.119Z,99.90
2018-09-14T06:42:57.431Z,99.90
2018-09-14T06:45:31.838Z,99.90
2018-09-14T06:48:06.035Z,99.90
2018-09-14T06:50:40.254Z,99.90
2018-09-14T06:53:14.618Z,99.90
2018-09-14T06:55:48.909Z,99.90
2018-09-14T06:58:23.326Z,99.90
2018-09-14T07:00:57.547Z,99.90
2018-09-14T07:03:31.846Z,99.90
2018-09-14T07:06:06.093Z,99.90
2018-09-14T07:08:40.243Z,99.90
2018-09-14T07:11:14.650Z,99.90
2018-09-14T07:13:49.002Z,99.90
2018-09-14T07:16:23.223Z,99.90
2018-09-14T07:18:57.542Z,99.90
2018-09-14T07:21:31.842Z,99.90
2018-09-14T07:24:06.194Z,99.90
2018-09-14T07:26:40.514Z,99.90
2018-09-14T07:29:15.017Z,99.90
2018-09-14T07:31:49.244Z,99.90
2018-09-14T07:34:23.475Z,99.90
2018-09-14T07:36:57.835Z,99.90
2018-09-14T07:39:32.166Z,99.90
2018-09-14T07:42:06.426Z,99.90
2018-09-14T07:44:40.814Z,99.90
2018-09-14T07:47:15.066Z,99.90
2018-09-14T07:49:49.230Z,99.90
2018-09-14T07:52:27.269Z,99.90
2018-09-14T07:55:01.863Z,99.90
2018-09-14T07:57:36.094Z,99.90
2018-09-14T08:00:10.413Z,99.90
2018-09-14T08:02:44.845Z,99.90
2018-09-14T08:05:19.087Z,99.90
2018-09-14T08:07:53.413Z,99.90
2018-09-14T08:10:27.642Z,99.90
2018-09-14T08:13:01.996Z,99.90
2018-09-14T08:15:36.349Z,99.90
2018-09-14T08:18:10.693Z,99.90
2018-09-14T08:20:44.926Z,99.90
2018-09-14T08:23:19.351Z,99.90
2018-09-14T08:25:53.638Z,99.90
2018-09-14T08:28:28.138Z,99.90
2018-09-14T08:31:02.600Z,99.90
2018-09-14T08:33:36.914Z,99.90
2018-09-14T08:36:11.187Z,99.90
2018-09-14T08:38:45.394Z,99.90
2018-09-14T08:41:19.811Z,99.90
2018-09-14T08:43:54.123Z,99.90
2018-09-14T08:46:28.445Z,99.90
2018-09-14T08:49:03.086Z,99.90
2018-09-14T08:51:37.455Z,99.90
2018-09-14T08:54:11.790Z,99.90
2018-09-14T08:56:45.965Z,99.90
2018-09-14T08:59:20.165Z,99.90
2018-09-14T09:01:54.606Z,99.90
2018-09-14T09:04:28.912Z,99.90
2018-09-14T09:07:03.440Z,99.90
2018-09-14T09:09:37.830Z,99.90
2018-09-14T09:12:12.153Z,99.90
2018-09-14T09:14:46.527Z,99.90
2018-09-14T09:17:20.806Z,99.90
2018-09-14T09:19:55.152Z,99.90
2018-09-14T09:22:29.346Z,99.90
2018-09-14T09:25:03.840Z,99.90
2018-09-14T09:27:38.158Z,99.90
2018-09-14T09:30:16.375Z,99.90
2018-09-14T09:32:50.646Z,99.30
2018-09-14T09:35:24.951Z,99.60
2018-09-14T09:37:59.174Z,98.80
2018-09-14T09:40:33.607Z,99.40
2018-09-14T09:43:07.904Z,98.40
2018-09-14T09:45:42.526Z,98.20
2018-09-14T09:48:16.670Z,97.90
2018-09-14T09:50:50.989Z,98.00
2018-09-14T09:53:25.305Z,97.00
2018-09-14T09:55:59.522Z,96.50
2018-09-14T09:58:33.840Z,96.90
2018-09-14T10:01:13.724Z,96.90
2018-09-14T10:03:53.111Z,95.40
2018-09-14T10:06:27.575Z,95.20
2018-09-14T10:09:01.821Z,95.40
2018-09-14T10:11:36.310Z,95.20
2018-09-14T10:14:10.577Z,94.70
2018-09-14T10:16:44.987Z,94.10
2018-09-14T10:19:19.414Z,93.30
2018-09-14T10:21:53.687Z,94.00
2018-09-14T10:24:28.028Z,94.60
2018-09-14T10:27:02.359Z,94.80
2018-09-14T10:29:36.543Z,93.50
2018-09-14T10:32:10.951Z,94.00
2018-09-14T10:34:45.229Z,93.30
2018-09-14T10:37:19.542Z,92.50
2018-09-14T10:39:53.946Z,92.10
2018-09-14T10:42:28.259Z,91.80
2018-09-14T10:45:02.676Z,91.70
2018-09-14T10:47:36.833Z,92.10
2018-09-14T10:50:11.294Z,91.70
2018-09-14T10:52:45.858Z,91.30
2018-09-14T10:55:20.222Z,91.50
2018-09-14T10:57:54.558Z,91.30
2018-09-14T11:00:28.966Z,90.70
2018-09-14T11:03:03.211Z,90.70
2018-09-14T11:05:37.544Z,90.50
2018-09-14T11:08:11.872Z,89.00
2018-09-14T11:10:46.294Z,88.70
2018-09-14T11:13:20.607Z,90.00
2018-09-14T11:15:54.929Z,90.00
2018-09-14T11:18:29.254Z,88.80
2018-09-14T11:21:03.606Z,86.10
2018-09-14T11:23:37.941Z,85.60
2018-09-14T11:26:12.284Z,85.10
2018-09-14T11:28:46.794Z,84.30
2018-09-14T11:31:25.375Z,83.00
2018-09-14T11:33:59.809Z,82.80
2018-09-14T11:36:34.304Z,81.30
2018-09-14T11:39:09.408Z,78.60
2018-09-14T11:41:43.626Z,74.10
2018-09-14T11:44:17.902Z,74.90
2018-09-14T11:46:52.073Z,73.40
2018-09-14T11:49:26.437Z,73.20
2018-09-14T11:52:01.154Z,70.30
2018-09-14T11:54:35.518Z,70.70
2018-09-14T11:57:09.821Z,67.60
2018-09-14T11:59:44.214Z,67.50
2018-09-14T12:02:18.545Z,66.40
2018-09-14T12:04:53.854Z,64.70
2018-09-14T12:07:28.147Z,66.50
2018-09-14T12:11:14.064Z,66.50
2018-09-14T12:13:48.585Z,67.40
2018-09-14T12:16:22.818Z,66.70
2018-09-14T12:18:57.050Z,66.40
2018-09-14T12:21:31.522Z,65.10
2018-09-14T12:24:05.915Z,65.10
2018-09-14T12:26:40.337Z,65.10
2018-09-14T12:29:14.707Z,64.50
2018-09-14T12:31:48.974Z,63.10
2018-09-14T12:34:23.294Z,61.40
2018-09-14T12:36:57.572Z,62.40
2018-09-14T12:39:31.734Z,64.00
2018-09-14T12:42:06.177Z,61.70
2018-09-14T12:44:40.435Z,62.90
2018-09-14T12:47:14.651Z,61.80
2018-09-14T12:49:49.069Z,61.70
2018-09-14T12:52:23.323Z,61.10
2018-09-14T12:54:57.650Z,60.70
2018-09-14T12:57:31.945Z,60.20
2018-09-14T13:00:07.125Z,59.70
2018-09-14T13:02:41.378Z,60.00
2018-09-14T13:05:16.168Z,60.30
2018-09-14T13:07:50.376Z,60.00
2018-09-14T13:10:24.763Z,60.60
2018-09-14T13:12:59.183Z,59.70
2018-09-14T13:15:33.441Z,61.00
2018-09-14T13:18:07.804Z,59.70
2018-09-14T13:20:42.115Z,58.90
2018-09-14T13:23:16.481Z,61.20
2018-09-14T13:25:50.778Z,59.20
2018-09-14T13:28:25.119Z,59.80
2018-09-14T13:30:59.566Z,59.30
2018-09-14T13:33:33.911Z,60.70
2018-09-14T13:36:08.247Z,60.90
2018-09-14T13:38:42.568Z,60.10
2018-09-14T13:41:16.897Z,60.10
2018-09-14T13:43:51.209Z,60.00
2018-09-14T13:46:25.581Z,59.30
2018-09-14T13:48:59.882Z,59.50
2018-09-14T13:51:34.455Z,59.60
2018-09-14T13:54:08.627Z,57.50
2018-09-14T13:56:42.923Z,58.60
2018-09-14T13:59:17.270Z,59.20
2018-09-14T14:01:51.582Z,58.20
2018-09-14T14:04:25.821Z,59.60
2018-09-14T14:07:00.290Z,58.10
2018-09-14T14:09:34.638Z,57.00
2018-09-14T14:12:09.105Z,57.50
2018-09-14T14:14:43.215Z,56.70
2018-09-14T14:17:17.789Z,57.00
2018-09-14T14:19:51.978Z,57.60
2018-09-14T14:22:26.311Z,57.60
2018-09-14T14:25:00.698Z,58.00
2018-09-14T14:27:35.015Z,57.20
2018-09-14T14:30:09.330Z,57.80
2018-09-14T14:32:43.651Z,57.00
2018-09-14T14:35:18.042Z,56.30
2018-09-14T14:37:52.202Z,57.00
2018-09-14T14:40:26.515Z,57.10
2018-09-14T14:43:00.887Z,56.70
2018-09-14T14:45:35.064Z,56.00
2018-09-14T14:48:09.371Z,55.60
2018-09-14T14:50:43.664Z,55.30
2018-09-14T14:53:17.946Z,56.30
2018-09-14T14:55:52.184Z,55.20
2018-09-14T14:58:26.455Z,55.40
2018-09-14T15:01:00.615Z,55.70
2018-09-14T15:03:34.915Z,54.00
2018-09-14T15:06:09.111Z,54.90
2018-09-14T15:08:43.449Z,54.40
2018-09-14T15:11:17.732Z,54.40
2018-09-14T15:13:52.029Z,54.90
2018-09-14T15:16:26.317Z,55.40
2018-09-14T15:19:00.801Z,54.80
2018-09-14T15:21:35.447Z,55.20
2018-09-14T15:24:09.627Z,54.40
2018-09-14T15:26:43.905Z,54.60
2018-09-14T15:29:18.241Z,54.90
2018-09-14T15:31:52.406Z,54.60
2018-09-14T15:34:26.824Z,54.30
2018-09-14T15:37:01.071Z,53.80
2018-09-14T15:39:35.526Z,54.10
2018-09-14T15:42:09.829Z,54.30
2018-09-14T15:44:44.180Z,53.60
2018-09-14T15:47:18.420Z,54.30
2018-09-14T15:49:52.875Z,53.10
2018-09-14T15:52:27.206Z,55.50
2018-09-14T15:55:01.418Z,54.00
2018-09-14T15:57:35.831Z,54.80
2018-09-14T16:00:10.002Z,53.80
2018-09-14T16:02:44.256Z,53.50
2018-09-14T16:05:18.554Z,54.10
2018-09-14T16:07:52.713Z,54.60
2018-09-14T16:10:27.031Z,55.50
2018-09-14T16:13:01.510Z,54.80
2018-09-14T16:15:35.744Z,54.30
2018-09-14T16:18:10.026Z,55.20
2018-09-14T16:20:44.326Z,55.90
2018-09-14T16:23:18.614Z,56.30
2018-09-14T16:25:52.909Z,56.70
2018-09-14T16:28:27.165Z,55.70
2018-09-14T16:31:01.489Z,57.10
2018-09-14T16:33:35.749Z,57.40
2018-09-14T16:36:10.065Z,57.20
2018-09-14T16:38:44.394Z,58.00
2018-09-14T16:41:18.735Z,58.10
2018-09-14T16:43:53.069Z,59.30
2018-09-14T16:46:27.486Z,58.60
2018-09-14T16:49:01.836Z,59.50
2018-09-14T16:51:36.255Z,60.00
2018-09-14T16:54:10.478Z,60.50
2018-09-14T16:56:44.650Z,61.80
2018-09-14T16:59:18.994Z,62.60
2018-09-14T17:01:53.271Z,62.90
2018-09-14T17:04:27.638Z,64.50
2018-09-14T17:07:02.022Z,64.10
2018-09-14T17:09:36.408Z,65.10
2018-09-14T17:12:10.864Z,66.60
2018-09-14T17:14:45.190Z,66.20
2018-09-14T17:17:19.513Z,67.00
2018-09-14T17:19:53.853Z,67.60
2018-09-14T17:22:29.065Z,69.60
2018-09-14T17:25:03.282Z,70.60
2018-09-14T17:27:37.703Z,71.70
2018-09-14T17:30:11.895Z,72.10
2018-09-14T17:32:46.185Z,73.00
2018-09-14T17:35:20.507Z,73.10
2018-09-14T17:37:54.673Z,74.50
2018-09-14T17:40:29.003Z,74.90
2018-09-14T17:43:03.253Z,75.00
2018-09-14T17:45:37.564Z,75.70
2018-09-14T17:48:11.909Z,76.10
2018-09-14T17:50:46.093Z,77.20
2018-09-14T17:53:20.251Z,77.10
2018-09-14T17:55:54.538Z,78.00
2018-09-14T17:58:28.950Z,78.20
2018-09-14T18:01:03.282Z,78.90
2018-09-14T18:03:37.586Z,79.20
2018-09-14T18:06:11.887Z,80.30
2018-09-14T18:08:46.177Z,80.30
2018-09-14T18:11:20.506Z,81.00
2018-09-14T18:13:54.798Z,80.90
2018-09-14T18:16:28.978Z,82.00
2018-09-14T18:19:03.257Z,82.10
2018-09-14T18:21:37.562Z,82.80
2018-09-14T18:24:11.838Z,83.10
2018-09-14T18:26:46.302Z,83.10
2018-09-14T18:29:20.787Z,83.80
2018-09-14T18:31:55.204Z,84.10
2018-09-14T18:34:29.579Z,84.50
2018-09-14T18:37:03.789Z,84.70
2018-09-14T18:39:38.258Z,85.30
2018-09-14T18:42:12.442Z,85.90
2018-09-14T18:44:46.625Z,85.60
2018-09-14T18:47:20.962Z,86.00
2018-09-14T18:49:55.269Z,86.40
2018-09-14T18:52:29.489Z,87.20
2018-09-14T18:55:03.626Z,85.80
2018-09-14T18:57:37.811Z,87.10
2018-09-14T19:00:12.098Z,87.10
2018-09-14T19:02:46.493Z,87.60
2018-09-14T19:05:20.765Z,87.60
2018-09-14T19:07:55.047Z,87.90
2018-09-14T19:10:29.566Z,88.10
2018-09-14T19:13:03.894Z,88.00
2018-09-14T19:15:44.740Z,88.80
2018-09-14T19:41:55.400Z,88.70
2018-09-14T19:44:34.440Z,88.70
2018-09-14T19:47:28.887Z,88.60
2018-09-14T19:50:09.859Z,88.30
2018-09-14T19:53:09.155Z,88.60
2018-09-14T19:55:43.549Z,88.80
2018-09-14T19:58:17.863Z,88.70
2018-09-14T20:00:52.222Z,85.30
2018-09-14T20:06:12.708Z,84.80
2018-09-14T20:08:47.090Z,83.40
2018-09-14T20:11:21.546Z,82.70
2018-09-14T20:13:55.838Z,82.30
2018-09-14T20:16:30.178Z,81.20
2018-09-14T20:19:04.421Z,80.40
2018-09-14T20:21:38.771Z,80.60
2018-09-14T20:24:13.013Z,79.40
2018-09-14T20:26:47.371Z,78.40
2018-09-14T20:29:21.743Z,78.80
2018-09-14T20:31:56.054Z,78.40
2018-09-14T20:34:30.410Z,77.40
2018-09-14T20:37:04.570Z,77.90
2018-09-14T20:39:39.095Z,77.90
2018-09-14T20:42:14.943Z,78.30
2018-09-14T20:44:49.438Z,78.40
2018-09-14T20:47:26.435Z,78.50
2018-09-14T20:50:06.718Z,78.70
2018-09-14T20:52:46.035Z,78.30
2018-09-14T20:55:21.461Z,78.20
2018-09-14T20:57:56.510Z,78.00
2018-09-14T21:00:40.724Z,77.80
2018-09-14T21:06:04.544Z,77.00
2018-09-14T21:08:46.198Z,77.50
2018-09-14T21:11:22.462Z,77.10
2018-09-14T21:13:56.707Z,76.90
2018-09-14T21:16:31.037Z,76.80
2018-09-14T21:19:05.203Z,76.50
2018-09-14T21:21:39.855Z,76.70
2018-09-14T21:24:14.905Z,76.30
2018-09-14T21:26:49.563Z,76.30
2018-09-14T21:29:24.271Z,77.50
2018-09-14T21:31:58.802Z,76.90
2018-09-14T21:34:33.922Z,77.70
2018-09-14T21:37:08.955Z,77.40
2018-09-14T21:39:44.059Z,77.40
2018-09-14T21:42:21.323Z,77.80
2018-09-14T21:44:56.832Z,77.40
2018-09-14T21:47:31.726Z,77.30
2018-09-14T21:50:08.375Z,77.20
2018-09-14T21:52:43.328Z,76.70
2018-09-14T21:55:17.600Z,77.80
2018-09-14T21:57:52.318Z,78.00
2018-09-14T22:00:32.074Z,78.10
2018-09-14T22:03:06.904Z,77.80
2018-09-14T22:05:41.589Z,78.00
2018-09-14T22:08:15.881Z,78.40
2018-09-14T22:10:50.159Z,78.50
2018-09-14T22:13:24.438Z,79.00
2018-09-14T22:16:00.655Z,78.70
2018-09-14T22:18:37.364Z,78.80
2018-09-14T22:21:14.514Z,78.80
2018-09-14T22:23:50.813Z,79.00
2018-09-14T22:26:28.352Z,79.70
2018-09-14T22:29:06.854Z,79.90
2018-09-14T22:31:41.027Z,79.90
2018-09-14T22:34:15.279Z,80.20
2018-09-14T22:36:49.921Z,80.50
2018-09-14T22:39:24.313Z,80.70
2018-09-14T22:41:58.571Z,80.50
2018-09-14T22:44:32.882Z,80.70
2018-09-14T22:47:07.238Z,81.20
2018-09-14T22:49:41.579Z,81.80
2018-09-14T22:52:15.835Z,81.80
2018-09-14T22:54:50.295Z,81.70
2018-09-14T22:57:24.548Z,82.00
2018-09-14T22:59:58.884Z,81.30
2018-09-14T23:02:33.267Z,81.20
2018-09-14T23:05:07.666Z,81.10
2018-09-14T23:07:41.983Z,81.90
2018-09-14T23:10:16.429Z,80.90
2018-09-14T23:12:50.771Z,82.20
2018-09-14T23:15:25.227Z,82.10
2018-09-14T23:17:59.751Z,82.30
2018-09-14T23:20:34.063Z,82.40
2018-09-14T23:23:08.488Z,82.70
2018-09-14T23:25:42.903Z,82.50
2018-09-14T23:28:17.338Z,82.70
2018-09-14T23:30:51.730Z,83.20
2018-09-14T23:33:26.070Z,83.20
2018-09-14T23:36:00.533Z,83.90
2018-09-14T23:38:34.849Z,84.00
2018-09-14T23:41:09.185Z,84.40
2018-09-14T23:43:43.505Z,84.70
2018-09-14T23:46:17.818Z,84.80
2018-09-14T23:48:51.964Z,84.50
2018-09-14T23:51:26.363Z,84.90
2018-09-14T23:54:00.571Z,85.20
2018-09-14T23:56:34.882Z,85.20
2018-09-14T23:59:09.270Z,85.90
